sensor_id;sensor_type;location;lat;lon;timestamp;P1;durP1;ratioP1;P2;durP2;ratioP2
73239;SDS011;61452;40.054;4.110;2023-02-18T00:02:17;2.67;;;1.95;;
73239;SDS011;61452;40.054;4.110;2023-02-18T00:07:19;2.65;;;1.80;;
73239;SDS011;61452;40.054;4.110;2023-02-18T00:12:21;2.75;;;2.08;;
73239;SDS011;61452;40.054;4.110;2023-02-18T00:17:24;2.20;;;1.65;;
73239;SDS011;61452;40.054;4.110;2023-02-18T00:22:26;2.50;;;1.55;;
73239;SDS011;61452;40.054;4.110;2023-02-18T00:27:30;2.38;;;1.80;;
73239;SDS011;61452;40.054;4.110;2023-02-18T00:37:36;2.13;;;1.60;;
73239;SDS011;61452;40.054;4.110;2023-02-18T00:42:39;2.92;;;1.63;;
73239;SDS011;61452;40.054;4.110;2023-02-18T00:47:42;2.47;;;1.90;;
73239;SDS011;61452;40.054;4.110;2023-02-18T00:52:44;2.30;;;1.80;;
73239;SDS011;61452;40.054;4.110;2023-02-18T00:57:46;2.63;;;1.85;;
73239;SDS011;61452;40.054;4.110;2023-02-18T01:02:48;2.15;;;1.70;;
73239;SDS011;61452;40.054;4.110;2023-02-18T01:07:56;2.10;;;1.60;;
73239;SDS011;61452;40.054;4.110;2023-02-18T01:12:58;3.00;;;1.80;;
73239;SDS011;61452;40.054;4.110;2023-02-18T01:18:01;1.60;;;1.30;;
73239;SDS011;61452;40.054;4.110;2023-02-18T01:23:03;2.30;;;1.75;;
73239;SDS011;61452;40.054;4.110;2023-02-18T01:28:06;2.10;;;1.60;;
73239;SDS011;61452;40.054;4.110;2023-02-18T01:33:09;2.60;;;1.77;;
73239;SDS011;61452;40.054;4.110;2023-02-18T01:38:12;1.95;;;1.65;;
73239;SDS011;61452;40.054;4.110;2023-02-18T01:43:14;2.25;;;1.70;;
73239;SDS011;61452;40.054;4.110;2023-02-18T01:58:59;2.35;;;1.60;;
73239;SDS011;61452;40.054;4.110;2023-02-18T02:04:04;2.42;;;1.75;;
73239;SDS011;61452;40.054;4.110;2023-02-18T02:09:09;2.35;;;1.80;;
73239;SDS011;61452;40.054;4.110;2023-02-18T02:35:56;2.28;;;1.88;;
73239;SDS011;61452;40.054;4.110;2023-02-18T02:41:12;2.00;;;1.65;;
73239;SDS011;61452;40.054;4.110;2023-02-18T02:46:33;2.33;;;2.10;;
73239;SDS011;61452;40.054;4.110;2023-02-18T02:57:07;2.10;;;1.75;;
73239;SDS011;61452;40.054;4.110;2023-02-18T03:19:16;2.22;;;1.50;;
73239;SDS011;61452;40.054;4.110;2023-02-18T03:24:40;2.40;;;1.70;;
73239;SDS011;61452;40.054;4.110;2023-02-18T03:29:50;2.22;;;2.03;;
73239;SDS011;61452;40.054;4.110;2023-02-18T03:34:59;1.90;;;1.60;;
73239;SDS011;61452;40.054;4.110;2023-02-18T03:40:06;2.65;;;1.60;;
73239;SDS011;61452;40.054;4.110;2023-02-18T03:45:11;2.40;;;1.70;;
73239;SDS011;61452;40.054;4.110;2023-02-18T03:50:14;1.60;;;1.30;;
73239;SDS011;61452;40.054;4.110;2023-02-18T03:55:17;1.70;;;1.60;;
73239;SDS011;61452;40.054;4.110;2023-02-18T04:00:19;2.00;;;1.52;;
73239;SDS011;61452;40.054;4.110;2023-02-18T04:05:22;1.83;;;1.60;;
73239;SDS011;61452;40.054;4.110;2023-02-18T04:10:24;1.50;;;1.20;;
73239;SDS011;61452;40.054;4.110;2023-02-18T04:15:26;2.58;;;1.65;;
73239;SDS011;61452;40.054;4.110;2023-02-18T04:20:28;1.70;;;1.60;;
73239;SDS011;61452;40.054;4.110;2023-02-18T04:25:30;1.95;;;1.50;;
73239;SDS011;61452;40.054;4.110;2023-02-18T04:30:33;1.88;;;1.50;;
73239;SDS011;61452;40.054;4.110;2023-02-18T04:35:35;1.80;;;1.38;;
73239;SDS011;61452;40.054;4.110;2023-02-18T04:40:40;1.90;;;1.38;;
73239;SDS011;61452;40.054;4.110;2023-02-18T04:45:42;2.20;;;1.55;;
73239;SDS011;61452;40.054;4.110;2023-02-18T04:50:44;2.45;;;1.67;;
73239;SDS011;61452;40.054;4.110;2023-02-18T04:55:50;2.97;;;1.85;;
73239;SDS011;61452;40.054;4.110;2023-02-18T05:00:53;1.67;;;1.33;;
73239;SDS011;61452;40.054;4.110;2023-02-18T05:06:00;1.98;;;1.30;;
73239;SDS011;61452;40.054;4.110;2023-02-18T05:11:08;2.45;;;1.63;;
73239;SDS011;61452;40.054;4.110;2023-02-18T05:16:11;1.58;;;1.35;;
73239;SDS011;61452;40.054;4.110;2023-02-18T05:21:14;2.33;;;1.40;;
73239;SDS011;61452;40.054;4.110;2023-02-18T05:26:16;1.55;;;1.30;;
73239;SDS011;61452;40.054;4.110;2023-02-18T05:31:19;1.95;;;1.60;;
73239;SDS011;61452;40.054;4.110;2023-02-18T05:36:21;2.05;;;1.85;;
73239;SDS011;61452;40.054;4.110;2023-02-18T05:41:23;2.05;;;1.50;;
73239;SDS011;61452;40.054;4.110;2023-02-18T05:46:25;3.08;;;1.63;;
73239;SDS011;61452;40.054;4.110;2023-02-18T05:51:28;2.10;;;1.65;;
73239;SDS011;61452;40.054;4.110;2023-02-18T05:56:30;1.92;;;1.35;;
73239;SDS011;61452;40.054;4.110;2023-02-18T06:01:32;2.00;;;1.42;;
73239;SDS011;61452;40.054;4.110;2023-02-18T06:06:34;2.13;;;1.73;;
73239;SDS011;61452;40.054;4.110;2023-02-18T06:11:37;2.13;;;1.50;;
73239;SDS011;61452;40.054;4.110;2023-02-18T06:16:39;1.85;;;1.35;;
73239;SDS011;61452;40.054;4.110;2023-02-18T06:21:42;1.80;;;1.52;;
73239;SDS011;61452;40.054;4.110;2023-02-18T06:26:44;1.90;;;1.52;;
73239;SDS011;61452;40.054;4.110;2023-02-18T06:31:46;1.90;;;1.30;;
73239;SDS011;61452;40.054;4.110;2023-02-18T06:36:48;2.13;;;1.70;;
73239;SDS011;61452;40.054;4.110;2023-02-18T06:41:50;2.10;;;1.50;;
73239;SDS011;61452;40.054;4.110;2023-02-18T06:46:53;1.95;;;1.40;;
73239;SDS011;61452;40.054;4.110;2023-02-18T06:51:55;2.00;;;1.50;;
73239;SDS011;61452;40.054;4.110;2023-02-18T06:56:57;2.03;;;1.40;;
73239;SDS011;61452;40.054;4.110;2023-02-18T07:01:59;2.30;;;1.50;;
73239;SDS011;61452;40.054;4.110;2023-02-18T07:07:01;1.58;;;1.35;;
73239;SDS011;61452;40.054;4.110;2023-02-18T07:12:03;1.60;;;1.30;;
73239;SDS011;61452;40.054;4.110;2023-02-18T07:17:06;1.85;;;1.42;;
73239;SDS011;61452;40.054;4.110;2023-02-18T07:22:08;2.40;;;1.65;;
73239;SDS011;61452;40.054;4.110;2023-02-18T07:27:10;2.13;;;1.40;;
73239;SDS011;61452;40.054;4.110;2023-02-18T07:32:13;2.47;;;1.55;;
73239;SDS011;61452;40.054;4.110;2023-02-18T07:37:18;2.03;;;1.27;;
73239;SDS011;61452;40.054;4.110;2023-02-18T07:42:21;1.67;;;1.42;;
73239;SDS011;61452;40.054;4.110;2023-02-18T07:47:23;2.10;;;1.80;;
73239;SDS011;61452;40.054;4.110;2023-02-18T07:52:25;1.95;;;1.48;;
73239;SDS011;61452;40.054;4.110;2023-02-18T07:57:27;1.90;;;1.40;;
73239;SDS011;61452;40.054;4.110;2023-02-18T08:02:30;1.92;;;1.60;;
73239;SDS011;61452;40.054;4.110;2023-02-18T08:07:32;1.85;;;1.48;;
73239;SDS011;61452;40.054;4.110;2023-02-18T08:12:34;1.60;;;1.50;;
73239;SDS011;61452;40.054;4.110;2023-02-18T08:17:36;2.25;;;1.70;;
73239;SDS011;61452;40.054;4.110;2023-02-18T08:22:38;2.05;;;1.50;;
73239;SDS011;61452;40.054;4.110;2023-02-18T08:27:40;1.63;;;1.33;;
73239;SDS011;61452;40.054;4.110;2023-02-18T08:32:42;1.70;;;1.38;;
73239;SDS011;61452;40.054;4.110;2023-02-18T08:37:45;1.55;;;1.20;;
73239;SDS011;61452;40.054;4.110;2023-02-18T08:42:54;1.75;;;1.10;;
73239;SDS011;61452;40.054;4.110;2023-02-18T08:47:56;1.60;;;1.20;;
73239;SDS011;61452;40.054;4.110;2023-02-18T08:53:18;1.65;;;1.30;;
73239;SDS011;61452;40.054;4.110;2023-02-18T08:58:21;1.63;;;1.13;;
73239;SDS011;61452;40.054;4.110;2023-02-18T09:03:23;2.38;;;1.23;;
73239;SDS011;61452;40.054;4.110;2023-02-18T09:08:25;1.40;;;1.25;;
73239;SDS011;61452;40.054;4.110;2023-02-18T09:13:28;2.00;;;1.40;;
73239;SDS011;61452;40.054;4.110;2023-02-18T09:18:31;2.05;;;1.50;;
73239;SDS011;61452;40.054;4.110;2023-02-18T09:23:36;1.35;;;1.13;;
73239;SDS011;61452;40.054;4.110;2023-02-18T09:28:38;1.60;;;1.13;;
73239;SDS011;61452;40.054;4.110;2023-02-18T09:33:42;1.35;;;1.20;;
73239;SDS011;61452;40.054;4.110;2023-02-18T09:38:47;1.70;;;1.13;;
73239;SDS011;61452;40.054;4.110;2023-02-18T09:43:50;1.98;;;1.50;;
73239;SDS011;61452;40.054;4.110;2023-02-18T09:48:56;1.85;;;1.30;;
73239;SDS011;61452;40.054;4.110;2023-02-18T09:54:02;1.70;;;1.33;;
73239;SDS011;61452;40.054;4.110;2023-02-18T09:59:05;2.33;;;1.30;;
73239;SDS011;61452;40.054;4.110;2023-02-18T10:04:19;1.40;;;1.20;;
73239;SDS011;61452;40.054;4.110;2023-02-18T10:09:31;1.58;;;1.15;;
73239;SDS011;61452;40.054;4.110;2023-02-18T10:14:35;1.45;;;1.20;;
73239;SDS011;61452;40.054;4.110;2023-02-18T10:19:37;2.20;;;1.50;;
73239;SDS011;61452;40.054;4.110;2023-02-18T10:29:47;1.27;;;1.15;;
73239;SDS011;61452;40.054;4.110;2023-02-18T10:40:13;1.80;;;1.50;;
73239;SDS011;61452;40.054;4.110;2023-02-18T10:45:37;2.40;;;1.33;;
73239;SDS011;61452;40.054;4.110;2023-02-18T10:50:47;1.48;;;1.30;;
73239;SDS011;61452;40.054;4.110;2023-02-18T10:55:50;1.70;;;1.60;;
73239;SDS011;61452;40.054;4.110;2023-02-18T11:05:57;1.73;;;1.50;;
73239;SDS011;61452;40.054;4.110;2023-02-18T11:10:59;1.95;;;1.33;;
73239;SDS011;61452;40.054;4.110;2023-02-18T11:16:14;2.25;;;1.52;;
73239;SDS011;61452;40.054;4.110;2023-02-18T11:31:43;2.72;;;1.48;;
73239;SDS011;61452;40.054;4.110;2023-02-18T11:36:48;1.80;;;1.50;;
73239;SDS011;61452;40.054;4.110;2023-02-18T11:47:16;2.08;;;1.67;;
73239;SDS011;61452;40.054;4.110;2023-02-18T11:57:28;2.83;;;1.95;;
73239;SDS011;61452;40.054;4.110;2023-02-18T12:02:37;3.10;;;2.03;;
73239;SDS011;61452;40.054;4.110;2023-02-18T12:13:06;2.47;;;1.80;;
73239;SDS011;61452;40.054;4.110;2023-02-18T12:18:12;2.60;;;1.77;;
73239;SDS011;61452;40.054;4.110;2023-02-18T12:28:36;2.95;;;1.85;;
73239;SDS011;61452;40.054;4.110;2023-02-18T12:44:44;2.50;;;2.05;;
73239;SDS011;61452;40.054;4.110;2023-02-18T13:00:42;2.53;;;1.95;;
73239;SDS011;61452;40.054;4.110;2023-02-18T13:06:11;3.63;;;1.80;;
73239;SDS011;61452;40.054;4.110;2023-02-18T13:11:39;2.53;;;1.80;;
73239;SDS011;61452;40.054;4.110;2023-02-18T13:16:54;2.10;;;1.65;;
73239;SDS011;61452;40.054;4.110;2023-02-18T13:21:59;2.28;;;1.90;;
73239;SDS011;61452;40.054;4.110;2023-02-18T13:43:27;2.75;;;1.90;;
73239;SDS011;61452;40.054;4.110;2023-02-18T13:48:52;2.50;;;1.90;;
73239;SDS011;61452;40.054;4.110;2023-02-18T13:59:17;2.33;;;1.80;;
73239;SDS011;61452;40.054;4.110;2023-02-18T14:09:43;2.35;;;1.90;;
73239;SDS011;61452;40.054;4.110;2023-02-18T14:14:46;2.85;;;2.08;;
73239;SDS011;61452;40.054;4.110;2023-02-18T14:25:15;2.28;;;1.88;;
73239;SDS011;61452;40.054;4.110;2023-02-18T14:30:40;3.20;;;1.95;;
73239;SDS011;61452;40.054;4.110;2023-02-18T14:35:55;2.58;;;1.77;;
73239;SDS011;61452;40.054;4.110;2023-02-18T14:41:12;2.22;;;1.77;;
73239;SDS011;61452;40.054;4.110;2023-02-18T14:46:24;2.60;;;2.25;;
73239;SDS011;61452;40.054;4.110;2023-02-18T14:51:47;2.03;;;1.70;;
73239;SDS011;61452;40.054;4.110;2023-02-18T14:56:59;2.47;;;2.03;;
73239;SDS011;61452;40.054;4.110;2023-02-18T15:02:19;2.45;;;1.60;;
73239;SDS011;61452;40.054;4.110;2023-02-18T15:07:25;2.83;;;1.70;;
73239;SDS011;61452;40.054;4.110;2023-02-18T15:12:27;2.72;;;1.88;;
73239;SDS011;61452;40.054;4.110;2023-02-18T15:17:30;2.30;;;1.83;;
73239;SDS011;61452;40.054;4.110;2023-02-18T15:22:33;2.58;;;1.92;;
73239;SDS011;61452;40.054;4.110;2023-02-18T15:27:37;2.08;;;1.58;;
73239;SDS011;61452;40.054;4.110;2023-02-18T15:32:44;2.55;;;1.80;;
73239;SDS011;61452;40.054;4.110;2023-02-18T15:37:52;3.03;;;1.95;;
73239;SDS011;61452;40.054;4.110;2023-02-18T15:42:56;2.92;;;1.85;;
73239;SDS011;61452;40.054;4.110;2023-02-18T15:48:01;2.38;;;1.80;;
73239;SDS011;61452;40.054;4.110;2023-02-18T15:53:06;2.63;;;1.77;;
73239;SDS011;61452;40.054;4.110;2023-02-18T15:58:11;2.17;;;1.65;;
73239;SDS011;61452;40.054;4.110;2023-02-18T16:03:22;2.03;;;1.77;;
73239;SDS011;61452;40.054;4.110;2023-02-18T16:08:26;2.08;;;1.60;;
73239;SDS011;61452;40.054;4.110;2023-02-18T16:13:29;2.50;;;1.65;;
73239;SDS011;61452;40.054;4.110;2023-02-18T16:18:37;2.25;;;1.90;;
73239;SDS011;61452;40.054;4.110;2023-02-18T16:23:43;1.90;;;1.70;;
73239;SDS011;61452;40.054;4.110;2023-02-18T16:28:48;1.98;;;1.73;;
73239;SDS011;61452;40.054;4.110;2023-02-18T16:33:52;2.28;;;1.50;;
73239;SDS011;61452;40.054;4.110;2023-02-18T16:38:54;1.88;;;1.75;;
73239;SDS011;61452;40.054;4.110;2023-02-18T16:43:56;1.98;;;1.73;;
73239;SDS011;61452;40.054;4.110;2023-02-18T16:48:58;1.92;;;1.45;;
73239;SDS011;61452;40.054;4.110;2023-02-18T16:54:00;2.17;;;1.55;;
73239;SDS011;61452;40.054;4.110;2023-02-18T16:59:03;2.25;;;1.75;;
73239;SDS011;61452;40.054;4.110;2023-02-18T17:04:06;2.00;;;1.67;;
73239;SDS011;61452;40.054;4.110;2023-02-18T17:09:15;1.92;;;1.70;;
73239;SDS011;61452;40.054;4.110;2023-02-18T17:14:22;2.30;;;1.45;;
73239;SDS011;61452;40.054;4.110;2023-02-18T17:19:25;1.98;;;1.42;;
73239;SDS011;61452;40.054;4.110;2023-02-18T17:24:27;2.50;;;1.73;;
73239;SDS011;61452;40.054;4.110;2023-02-18T17:29:29;2.28;;;1.80;;
73239;SDS011;61452;40.054;4.110;2023-02-18T17:34:31;1.70;;;1.30;;
73239;SDS011;61452;40.054;4.110;2023-02-18T17:39:33;1.83;;;1.40;;
73239;SDS011;61452;40.054;4.110;2023-02-18T17:44:35;1.90;;;1.42;;
73239;SDS011;61452;40.054;4.110;2023-02-18T17:49:40;2.10;;;1.70;;
73239;SDS011;61452;40.054;4.110;2023-02-18T17:54:42;2.10;;;1.60;;
73239;SDS011;61452;40.054;4.110;2023-02-18T17:59:44;1.73;;;1.40;;
73239;SDS011;61452;40.054;4.110;2023-02-18T18:04:46;1.92;;;1.20;;
73239;SDS011;61452;40.054;4.110;2023-02-18T18:09:48;2.47;;;1.42;;
73239;SDS011;61452;40.054;4.110;2023-02-18T18:14:50;2.22;;;1.30;;
73239;SDS011;61452;40.054;4.110;2023-02-18T18:19:53;1.83;;;1.30;;
73239;SDS011;61452;40.054;4.110;2023-02-18T18:24:55;1.88;;;1.42;;
73239;SDS011;61452;40.054;4.110;2023-02-18T18:29:57;1.95;;;1.35;;
73239;SDS011;61452;40.054;4.110;2023-02-18T18:34:59;1.80;;;1.27;;
73239;SDS011;61452;40.054;4.110;2023-02-18T18:40:01;1.95;;;1.40;;
73239;SDS011;61452;40.054;4.110;2023-02-18T18:45:03;1.90;;;1.23;;
73239;SDS011;61452;40.054;4.110;2023-02-18T18:50:06;1.90;;;1.50;;
73239;SDS011;61452;40.054;4.110;2023-02-18T18:55:18;1.85;;;1.25;;
73239;SDS011;61452;40.054;4.110;2023-02-18T19:00:47;1.70;;;1.23;;
73239;SDS011;61452;40.054;4.110;2023-02-18T19:05:51;1.50;;;1.25;;
73239;SDS011;61452;40.054;4.110;2023-02-18T19:10:54;1.67;;;1.30;;
73239;SDS011;61452;40.054;4.110;2023-02-18T19:16:19;1.92;;;1.02;;
73239;SDS011;61452;40.054;4.110;2023-02-18T19:21:25;1.80;;;1.40;;
73239;SDS011;61452;40.054;4.110;2023-02-18T19:26:28;2.33;;;1.50;;
73239;SDS011;61452;40.054;4.110;2023-02-18T19:31:30;1.42;;;1.13;;
73239;SDS011;61452;40.054;4.110;2023-02-18T19:36:32;1.80;;;1.30;;
73239;SDS011;61452;40.054;4.110;2023-02-18T19:41:34;2.42;;;1.60;;
73239;SDS011;61452;40.054;4.110;2023-02-18T19:46:36;2.10;;;1.48;;
73239;SDS011;61452;40.054;4.110;2023-02-18T19:51:38;1.90;;;1.23;;
73239;SDS011;61452;40.054;4.110;2023-02-18T19:56:41;1.45;;;1.20;;
73239;SDS011;61452;40.054;4.110;2023-02-18T20:01:43;1.83;;;1.42;;
73239;SDS011;61452;40.054;4.110;2023-02-18T20:06:45;1.70;;;1.33;;
73239;SDS011;61452;40.054;4.110;2023-02-18T20:11:47;1.75;;;1.33;;
73239;SDS011;61452;40.054;4.110;2023-02-18T20:16:49;2.22;;;1.55;;
73239;SDS011;61452;40.054;4.110;2023-02-18T20:21:51;2.08;;;1.42;;
73239;SDS011;61452;40.054;4.110;2023-02-18T20:26:57;1.92;;;1.30;;
73239;SDS011;61452;40.054;4.110;2023-02-18T20:32:03;1.83;;;1.40;;
73239;SDS011;61452;40.054;4.110;2023-02-18T20:37:06;1.80;;;1.42;;
73239;SDS011;61452;40.054;4.110;2023-02-18T20:42:08;1.60;;;1.35;;
73239;SDS011;61452;40.054;4.110;2023-02-18T20:47:16;1.63;;;1.33;;
73239;SDS011;61452;40.054;4.110;2023-02-18T20:52:19;1.63;;;1.40;;
73239;SDS011;61452;40.054;4.110;2023-02-18T20:57:21;1.83;;;1.42;;
73239;SDS011;61452;40.054;4.110;2023-02-18T21:02:23;1.75;;;1.30;;
73239;SDS011;61452;40.054;4.110;2023-02-18T21:07:25;1.50;;;1.38;;
73239;SDS011;61452;40.054;4.110;2023-02-18T21:12:27;1.65;;;1.15;;
73239;SDS011;61452;40.054;4.110;2023-02-18T21:17:29;2.20;;;1.52;;
73239;SDS011;61452;40.054;4.110;2023-02-18T21:22:31;1.65;;;1.35;;
73239;SDS011;61452;40.054;4.110;2023-02-18T21:27:34;1.80;;;1.50;;
73239;SDS011;61452;40.054;4.110;2023-02-18T21:32:36;1.80;;;1.27;;
73239;SDS011;61452;40.054;4.110;2023-02-18T21:37:38;2.20;;;1.52;;
73239;SDS011;61452;40.054;4.110;2023-02-18T21:42:40;1.90;;;1.50;;
73239;SDS011;61452;40.054;4.110;2023-02-18T21:47:43;1.88;;;1.73;;
73239;SDS011;61452;40.054;4.110;2023-02-18T21:52:45;1.75;;;1.45;;
73239;SDS011;61452;40.054;4.110;2023-02-18T21:57:47;1.52;;;1.40;;
73239;SDS011;61452;40.054;4.110;2023-02-18T22:02:49;1.80;;;1.33;;
73239;SDS011;61452;40.054;4.110;2023-02-18T22:07:51;1.90;;;1.50;;
73239;SDS011;61452;40.054;4.110;2023-02-18T22:12:54;1.52;;;1.17;;
73239;SDS011;61452;40.054;4.110;2023-02-18T22:17:56;1.70;;;1.30;;
73239;SDS011;61452;40.054;4.110;2023-02-18T22:22:58;1.80;;;1.30;;
73239;SDS011;61452;40.054;4.110;2023-02-18T22:28:00;2.38;;;1.63;;
73239;SDS011;61452;40.054;4.110;2023-02-18T22:33:02;1.80;;;1.35;;
73239;SDS011;61452;40.054;4.110;2023-02-18T22:38:04;1.50;;;1.20;;
73239;SDS011;61452;40.054;4.110;2023-02-18T22:43:06;2.55;;;1.42;;
73239;SDS011;61452;40.054;4.110;2023-02-18T22:48:09;1.83;;;1.55;;
73239;SDS011;61452;40.054;4.110;2023-02-18T22:53:11;2.05;;;1.23;;
73239;SDS011;61452;40.054;4.110;2023-02-18T22:58:13;2.22;;;1.40;;
73239;SDS011;61452;40.054;4.110;2023-02-18T23:03:15;2.03;;;1.40;;
73239;SDS011;61452;40.054;4.110;2023-02-18T23:08:17;1.80;;;1.58;;
73239;SDS011;61452;40.054;4.110;2023-02-18T23:13:19;1.65;;;1.50;;
73239;SDS011;61452;40.054;4.110;2023-02-18T23:18:21;1.45;;;1.15;;
73239;SDS011;61452;40.054;4.110;2023-02-18T23:23:23;1.80;;;1.52;;
73239;SDS011;61452;40.054;4.110;2023-02-18T23:28:26;1.55;;;1.25;;
73239;SDS011;61452;40.054;4.110;2023-02-18T23:33:29;1.50;;;1.27;;
73239;SDS011;61452;40.054;4.110;2023-02-18T23:38:31;1.70;;;1.40;;
73239;SDS011;61452;40.054;4.110;2023-02-18T23:43:33;1.70;;;1.10;;
73239;SDS011;61452;40.054;4.110;2023-02-18T23:48:35;2.40;;;1.50;;
73239;SDS011;61452;40.054;4.110;2023-02-18T23:53:38;2.53;;;1.50;;
73239;SDS011;61452;40.054;4.110;2023-02-18T23:58:42;2.08;;;1.52;;
